createdAt,value
2023-09-22T00:00:57.408Z,14.70
2023-09-22T00:03:32.665Z,11.15
2023-09-22T00:06:05.806Z,13.80
2023-09-22T00:08:38.061Z,13.80
2023-09-22T00:11:10.331Z,18.88
2023-09-22T00:13:42.812Z,16.50
2023-09-22T00:16:15.446Z,13.93
2023-09-22T00:18:47.738Z,17.75
2023-09-22T00:21:20.784Z,13.70
2023-09-22T00:23:53.359Z,11.02
2023-09-22T00:26:25.936Z,14.18
2023-09-22T00:28:58.428Z,10.63
2023-09-22T00:31:30.642Z,12.27
2023-09-22T00:34:02.840Z,12.27
2023-09-22T00:36:35.136Z,10.40
2023-09-22T00:39:07.336Z,12.45
2023-09-22T00:41:39.526Z,10.85
2023-09-22T00:44:11.629Z,14.52
2023-09-22T00:46:43.995Z,11.25
2023-09-22T00:49:16.196Z,13.05
2023-09-22T00:51:48.558Z,11.40
2023-09-22T00:54:21.392Z,14.32
2023-09-22T00:56:54.377Z,13.10
2023-09-22T00:59:27.340Z,14.23
2023-09-22T01:01:59.690Z,11.45
2023-09-22T01:04:32.052Z,11.55
2023-09-22T01:07:05.007Z,11.43
2023-09-22T01:09:43.326Z,17.50
2023-09-22T01:12:15.586Z,13.60
2023-09-22T01:14:47.980Z,13.23
2023-09-22T01:17:20.194Z,12.55
2023-09-22T01:19:52.308Z,11.50
2023-09-22T01:22:24.428Z,12.45
2023-09-22T01:24:58.348Z,15.10
2023-09-22T01:27:30.464Z,14.88
2023-09-22T01:30:06.344Z,14.90
2023-09-22T01:32:41.474Z,14.02
2023-09-22T01:35:14.333Z,12.98
2023-09-22T01:37:57.732Z,13.85
2023-09-22T01:40:29.801Z,16.63
2023-09-22T01:43:01.947Z,14.23
2023-09-22T01:45:34.159Z,13.15
2023-09-22T01:48:06.866Z,16.98
2023-09-22T01:50:41.660Z,12.88
2023-09-22T01:53:14.046Z,14.45
2023-09-22T01:55:48.235Z,13.68
2023-09-22T01:58:22.056Z,17.05
2023-09-22T02:00:54.972Z,17.75
2023-09-22T02:03:27.303Z,11.82
2023-09-22T02:06:00.861Z,14.68
2023-09-22T02:08:33.718Z,16.52
2023-09-22T02:11:06.965Z,20.15
2023-09-22T02:13:39.772Z,15.43
2023-09-22T02:16:11.994Z,15.07
2023-09-22T02:18:44.557Z,18.83
2023-09-22T02:21:18.643Z,16.33
2023-09-22T02:23:50.830Z,20.70
2023-09-22T02:26:23.187Z,19.17
2023-09-22T02:28:55.391Z,15.43
2023-09-22T02:31:29.149Z,19.73
2023-09-22T02:34:01.356Z,17.75
2023-09-22T02:36:33.761Z,19.98
2023-09-22T02:39:08.041Z,21.30
2023-09-22T02:41:40.142Z,15.90
2023-09-22T02:44:13.520Z,18.90
2023-09-22T02:46:46.843Z,17.13
2023-09-22T02:49:19.076Z,17.65
2023-09-22T02:51:51.411Z,21.42
2023-09-22T02:54:24.056Z,18.90
2023-09-22T02:56:57.120Z,20.45
2023-09-22T02:59:29.265Z,21.23
2023-09-22T03:02:01.420Z,16.40
2023-09-22T03:04:37.344Z,16.63
2023-09-22T03:07:09.448Z,15.27
2023-09-22T03:09:41.686Z,22.88
2023-09-22T03:12:13.959Z,16.85
2023-09-22T03:14:49.950Z,17.52
2023-09-22T03:17:22.150Z,18.05
2023-09-22T03:19:54.257Z,17.15
2023-09-22T03:22:27.499Z,15.48
2023-09-22T03:25:01.367Z,15.23
2023-09-22T03:27:38.086Z,18.25
2023-09-22T03:30:11.219Z,13.85
2023-09-22T03:32:43.436Z,21.73
2023-09-22T03:35:15.691Z,22.13
2023-09-22T03:37:50.454Z,15.65
2023-09-22T03:40:42.308Z,17.73
2023-09-22T03:43:16.146Z,19.35
2023-09-22T03:45:54.725Z,19.85
2023-09-22T03:48:26.998Z,19.50
2023-09-22T03:50:59.319Z,17.92
2023-09-22T03:53:34.137Z,19.05
2023-09-22T03:56:07.198Z,18.73
2023-09-22T03:58:39.447Z,18.23
2023-09-22T04:01:11.646Z,17.58
2023-09-22T04:03:45.593Z,20.83
2023-09-22T04:06:20.097Z,17.73
2023-09-22T04:08:52.958Z,16.70
2023-09-22T04:11:25.402Z,21.90
2023-09-22T04:13:57.445Z,20.63
2023-09-22T04:16:30.419Z,15.07
2023-09-22T04:19:02.625Z,17.15
2023-09-22T04:21:36.849Z,16.17
2023-09-22T04:24:08.942Z,19.70
2023-09-22T04:26:44.042Z,17.20
2023-09-22T04:29:16.117Z,18.05
2023-09-22T04:31:49.613Z,17.67
2023-09-22T04:34:21.754Z,14.15
2023-09-22T04:36:54.375Z,15.43
2023-09-22T04:39:26.494Z,20.20
2023-09-22T04:41:59.571Z,14.82
2023-09-22T04:44:32.268Z,19.55
2023-09-22T04:47:04.412Z,17.52
2023-09-22T04:49:36.578Z,18.20
2023-09-22T04:52:09.486Z,16.25
2023-09-22T04:54:41.744Z,14.45
2023-09-22T04:57:13.953Z,14.98
2023-09-22T04:59:46.038Z,16.35
2023-09-22T05:02:18.266Z,15.43
2023-09-22T05:04:51.140Z,17.10
2023-09-22T05:07:23.368Z,14.07
2023-09-22T05:09:55.779Z,17.42
2023-09-22T05:12:27.976Z,16.63
2023-09-22T05:15:02.248Z,13.70
2023-09-22T05:17:36.075Z,13.10
2023-09-22T05:20:14.376Z,13.93
2023-09-22T05:22:46.850Z,13.25
2023-09-22T05:25:19.647Z,14.27
2023-09-22T05:27:51.932Z,18.83
2023-09-22T05:30:24.521Z,15.60
2023-09-22T05:32:56.656Z,14.68
2023-09-22T05:35:28.796Z,12.20
2023-09-22T05:38:02.805Z,13.38
2023-09-22T05:40:35.643Z,16.38
2023-09-22T05:43:08.549Z,12.80
2023-09-22T05:45:40.817Z,13.38
2023-09-22T05:48:13.391Z,15.63
2023-09-22T05:50:45.532Z,14.02
2023-09-22T05:53:17.631Z,13.00
2023-09-22T05:55:49.744Z,15.75
2023-09-22T05:58:22.037Z,11.80
2023-09-22T06:00:54.172Z,13.55
2023-09-22T06:03:26.429Z,13.75
2023-09-22T06:05:58.795Z,15.38
2023-09-22T06:08:31.611Z,16.80
2023-09-22T06:11:08.100Z,13.82
2023-09-22T06:13:41.772Z,16.17
2023-09-22T06:16:13.991Z,21.77
2023-09-22T06:18:46.986Z,16.05
2023-09-22T06:21:19.346Z,12.93
2023-09-22T06:23:52.633Z,17.02
2023-09-22T06:26:24.805Z,14.02
2023-09-22T06:28:57.241Z,18.00
2023-09-22T06:31:29.466Z,15.75
2023-09-22T06:34:01.843Z,14.10
2023-09-22T06:36:35.042Z,12.50
2023-09-22T06:39:09.253Z,12.20
2023-09-22T06:41:41.799Z,15.32
2023-09-22T06:44:14.312Z,11.65
2023-09-22T06:46:46.515Z,12.60
2023-09-22T06:49:19.250Z,11.32
2023-09-22T06:51:51.902Z,14.13
2023-09-22T06:54:24.102Z,13.63
2023-09-22T06:56:57.276Z,14.05
2023-09-22T06:59:29.527Z,15.18
2023-09-22T07:02:01.665Z,13.82
2023-09-22T07:04:34.313Z,12.18
2023-09-22T07:07:07.726Z,11.93
2023-09-22T07:09:40.017Z,10.38
2023-09-22T07:12:12.151Z,17.50
2023-09-22T07:14:44.330Z,15.07
2023-09-22T07:17:16.487Z,13.95
2023-09-22T07:19:48.598Z,10.68
2023-09-22T07:22:20.834Z,11.55
2023-09-22T07:24:53.927Z,12.60
2023-09-22T07:27:26.330Z,9.23
2023-09-22T07:29:58.598Z,10.50
2023-09-22T07:32:31.681Z,11.25
2023-09-22T07:35:04.112Z,11.35
2023-09-22T07:37:36.366Z,12.90
2023-09-22T07:40:11.457Z,13.43
2023-09-22T07:42:46.231Z,11.77
2023-09-22T07:45:18.572Z,12.00
2023-09-22T07:47:50.898Z,11.05
2023-09-22T07:50:23.164Z,10.95
2023-09-22T07:52:55.264Z,9.40
2023-09-22T07:55:27.399Z,9.20
2023-09-22T07:57:59.681Z,16.58
2023-09-22T08:00:32.215Z,12.13
2023-09-22T08:03:06.070Z,17.10
2023-09-22T08:05:38.490Z,8.65
2023-09-22T08:08:11.933Z,11.50
2023-09-22T08:10:45.275Z,18.10
2023-09-22T08:13:17.686Z,10.98
2023-09-22T08:15:49.914Z,10.95
2023-09-22T08:18:22.145Z,13.18
2023-09-22T08:20:55.461Z,10.32
2023-09-22T08:23:41.989Z,13.35
2023-09-22T08:26:19.990Z,8.35
2023-09-22T08:28:52.241Z,11.90
2023-09-22T08:31:27.069Z,12.63
2023-09-22T08:33:59.269Z,9.05
2023-09-22T08:36:32.403Z,10.90
2023-09-22T08:39:04.959Z,8.80
2023-09-22T08:41:40.282Z,10.65
2023-09-22T08:44:12.860Z,7.85
2023-09-22T08:46:46.367Z,11.18
2023-09-22T08:49:18.661Z,13.65
2023-09-22T08:51:51.082Z,16.67
2023-09-22T08:54:23.377Z,10.25
2023-09-22T08:56:56.663Z,20.42
2023-09-22T08:59:29.238Z,14.32
2023-09-22T09:02:02.840Z,11.60
2023-09-22T09:04:41.231Z,10.30
2023-09-22T09:07:18.487Z,11.07
2023-09-22T09:09:51.101Z,13.63
2023-09-22T09:12:23.300Z,9.93
2023-09-22T09:14:59.629Z,9.25
2023-09-22T09:17:31.864Z,13.65
2023-09-22T09:20:07.160Z,12.38
2023-09-22T09:22:40.093Z,14.52
2023-09-22T09:25:13.538Z,14.98
2023-09-22T09:27:45.827Z,21.58
2023-09-22T09:30:20.354Z,13.93
2023-09-22T09:32:52.641Z,16.63
2023-09-22T09:35:44.099Z,15.00
2023-09-22T09:38:30.560Z,10.98
2023-09-22T09:41:03.289Z,13.23
2023-09-22T09:43:36.892Z,9.32
2023-09-22T09:46:10.740Z,9.70
2023-09-22T09:48:46.811Z,8.48
2023-09-22T09:51:22.158Z,12.18
2023-09-22T09:54:01.481Z,13.73
2023-09-22T09:56:34.621Z,19.10
2023-09-22T09:59:09.848Z,10.38
2023-09-22T10:01:43.341Z,10.48
2023-09-22T10:04:22.225Z,16.15
2023-09-22T10:06:56.213Z,7.68
2023-09-22T10:09:32.148Z,9.13
2023-09-22T10:12:07.098Z,6.63
2023-09-22T10:14:48.960Z,8.68
2023-09-22T10:17:24.249Z,7.53
2023-09-22T10:20:02.445Z,5.82
2023-09-22T10:22:35.006Z,8.25
2023-09-22T10:25:15.891Z,7.05
2023-09-22T10:28:04.052Z,7.75
2023-09-22T10:30:46.053Z,11.77
2023-09-22T10:33:25.244Z,7.97
2023-09-22T10:36:01.765Z,6.85
2023-09-22T10:38:55.341Z,4.50
2023-09-22T10:41:27.866Z,11.25
2023-09-22T10:44:01.506Z,4.05
2023-09-22T10:46:34.256Z,6.43
2023-09-22T10:49:06.581Z,8.30
2023-09-22T10:51:45.458Z,5.50
2023-09-22T10:54:19.692Z,13.18
2023-09-22T10:56:53.298Z,4.32
2023-09-22T10:59:35.143Z,5.60
2023-09-22T11:02:07.520Z,2.67
2023-09-22T11:04:43.653Z,8.25
2023-09-22T11:07:34.242Z,7.05
2023-09-22T11:10:07.638Z,4.63
2023-09-22T11:12:39.924Z,6.53
2023-09-22T11:15:12.119Z,8.70
2023-09-22T11:17:49.112Z,4.40
2023-09-22T11:20:28.467Z,8.20
2023-09-22T11:23:01.789Z,4.33
2023-09-22T11:25:34.049Z,3.90
2023-09-22T11:28:07.008Z,3.00
2023-09-22T11:30:40.808Z,4.80
2023-09-22T11:33:17.023Z,3.22
2023-09-22T11:35:53.877Z,7.63
2023-09-22T11:38:33.585Z,3.65
2023-09-22T11:41:17.825Z,5.28
2023-09-22T11:43:53.572Z,4.30
2023-09-22T11:46:27.837Z,2.90
2023-09-22T11:49:01.010Z,4.13
2023-09-22T11:52:09.201Z,3.15
2023-09-22T11:54:41.366Z,2.53
2023-09-22T11:57:13.668Z,3.65
2023-09-22T11:59:46.792Z,8.00
2023-09-22T12:02:19.071Z,4.22
2023-09-22T12:04:51.238Z,6.72
2023-09-22T12:07:23.488Z,2.75
2023-09-22T12:09:56.435Z,3.47
2023-09-22T12:12:28.565Z,3.92
2023-09-22T12:15:01.690Z,2.83
2023-09-22T12:17:33.939Z,2.72
2023-09-22T12:20:07.461Z,6.13
2023-09-22T12:22:39.699Z,2.10
2023-09-22T12:25:11.940Z,4.13
2023-09-22T12:27:44.074Z,10.35
2023-09-22T12:30:16.556Z,6.28
2023-09-22T12:32:48.701Z,4.20
2023-09-22T12:35:20.931Z,2.53
2023-09-22T12:37:54.238Z,6.28
2023-09-22T12:40:27.386Z,4.22
2023-09-22T12:42:59.534Z,3.53
2023-09-22T12:45:34.777Z,3.58
2023-09-22T12:48:07.657Z,6.78
2023-09-22T12:50:40.656Z,4.05
2023-09-22T12:53:12.737Z,3.47
2023-09-22T12:55:44.937Z,6.30
2023-09-22T12:58:17.191Z,4.55
2023-09-22T13:00:50.492Z,2.60
2023-09-22T13:03:23.068Z,10.40
2023-09-22T13:05:55.686Z,6.35
2023-09-22T13:08:28.815Z,7.50
2023-09-22T13:11:03.214Z,3.50
2023-09-22T13:13:36.330Z,8.65
2023-09-22T13:16:11.589Z,9.27
2023-09-22T13:18:46.366Z,2.85
2023-09-22T13:21:19.193Z,4.45
2023-09-22T13:23:52.951Z,2.50
2023-09-22T13:26:25.263Z,3.38
2023-09-22T13:28:58.247Z,4.85
2023-09-22T13:31:30.797Z,3.65
2023-09-22T13:34:03.802Z,2.70
2023-09-22T13:36:36.037Z,2.78
2023-09-22T13:39:09.847Z,3.53
2023-09-22T13:41:42.390Z,7.20
2023-09-22T13:44:15.036Z,5.75
2023-09-22T13:46:48.418Z,3.55
2023-09-22T13:49:21.294Z,4.13
2023-09-22T13:51:53.521Z,4.47
2023-09-22T13:54:25.683Z,7.38
2023-09-22T13:56:57.843Z,3.35
2023-09-22T13:59:30.046Z,7.72
2023-09-22T14:02:02.219Z,4.50
2023-09-22T14:04:34.538Z,4.28
2023-09-22T14:07:06.704Z,3.20
2023-09-22T14:09:39.037Z,5.68
2023-09-22T14:12:11.492Z,3.10
2023-09-22T14:14:43.667Z,2.15
2023-09-22T14:17:16.574Z,5.22
2023-09-22T14:19:48.929Z,4.88
2023-09-22T14:22:21.267Z,4.47
2023-09-22T14:24:53.889Z,6.38
2023-09-22T14:27:26.152Z,5.30
2023-09-22T14:29:58.369Z,4.63
2023-09-22T14:32:30.685Z,4.40
2023-09-22T14:35:02.833Z,3.45
2023-09-22T14:37:35.104Z,4.93
2023-09-22T14:40:08.040Z,4.45
2023-09-22T14:42:40.471Z,4.60
2023-09-22T14:45:12.812Z,5.50
2023-09-22T14:47:48.568Z,4.43
2023-09-22T14:50:22.522Z,2.55
2023-09-22T14:52:55.077Z,9.15
2023-09-22T14:55:27.388Z,6.88
2023-09-22T14:58:01.614Z,3.78
2023-09-22T15:00:34.111Z,3.65
2023-09-22T15:03:06.474Z,4.60
2023-09-22T15:05:38.628Z,3.58
2023-09-22T15:08:11.203Z,4.10
2023-09-22T15:10:51.943Z,3.20
2023-09-22T15:13:25.129Z,3.97
2023-09-22T15:15:58.267Z,5.15
2023-09-22T15:18:30.523Z,3.20
2023-09-22T15:21:09.939Z,4.90
2023-09-22T15:23:43.360Z,3.72
2023-09-22T15:26:15.606Z,4.32
2023-09-22T15:28:48.215Z,3.83
2023-09-22T15:31:20.757Z,3.67
2023-09-22T15:33:53.017Z,4.07
2023-09-22T15:36:25.245Z,6.72
2023-09-22T15:39:00.557Z,4.35
2023-09-22T15:41:34.292Z,4.35
2023-09-22T15:44:06.833Z,3.10
2023-09-22T15:46:39.063Z,4.70
2023-09-22T15:49:12.422Z,7.15
2023-09-22T15:51:44.808Z,5.22
2023-09-22T15:54:17.013Z,4.38
2023-09-22T15:56:49.214Z,4.82
2023-09-22T15:59:21.540Z,7.65
2023-09-22T16:01:53.896Z,2.72
2023-09-22T16:04:26.220Z,5.35
2023-09-22T16:06:58.480Z,7.20
2023-09-22T16:09:30.785Z,2.33
2023-09-22T16:12:02.896Z,8.20
2023-09-22T16:14:35.516Z,8.45
2023-09-22T16:17:07.695Z,5.20
2023-09-22T16:19:39.866Z,3.83
2023-09-22T16:22:12.022Z,4.85
2023-09-22T16:24:44.164Z,2.35
2023-09-22T16:27:16.419Z,6.00
2023-09-22T16:29:49.541Z,4.25
2023-09-22T16:32:21.791Z,6.38
2023-09-22T16:34:54.220Z,4.88
2023-09-22T16:37:26.730Z,4.18
2023-09-22T16:40:04.295Z,5.43
2023-09-22T16:42:36.722Z,7.57
2023-09-22T16:45:10.183Z,8.10
2023-09-22T16:47:42.524Z,5.07
2023-09-22T16:50:16.120Z,4.72
2023-09-22T16:52:48.538Z,3.05
2023-09-22T16:55:21.092Z,2.97
2023-09-22T16:57:53.462Z,6.75
2023-09-22T17:00:25.871Z,2.83
2023-09-22T17:02:58.230Z,3.90
2023-09-22T17:05:33.444Z,3.75
2023-09-22T17:08:06.784Z,3.65
2023-09-22T17:10:43.478Z,5.32
2023-09-22T17:13:15.792Z,3.67
2023-09-22T17:15:48.488Z,4.53
2023-09-22T17:18:22.877Z,9.70
2023-09-22T17:21:03.021Z,3.95
2023-09-22T17:23:36.723Z,2.42
2023-09-22T17:26:09.068Z,5.70
2023-09-22T17:28:41.779Z,6.97
2023-09-22T17:31:15.934Z,6.38
2023-09-22T17:33:48.212Z,5.70
2023-09-22T17:36:20.481Z,7.93
2023-09-22T17:38:53.298Z,6.43
2023-09-22T17:41:26.389Z,5.32
2023-09-22T17:43:58.880Z,8.75
2023-09-22T17:46:31.725Z,9.05
2023-09-22T17:49:04.936Z,8.57
2023-09-22T17:51:37.118Z,7.30
2023-09-22T17:54:09.228Z,10.43
2023-09-22T17:56:42.297Z,5.38
2023-09-22T17:59:14.510Z,6.65
2023-09-22T18:01:52.785Z,5.57
2023-09-22T18:04:25.272Z,6.63
2023-09-22T18:06:58.017Z,10.45
2023-09-22T18:09:30.672Z,7.20
2023-09-22T18:12:03.771Z,9.35
2023-09-22T18:14:36.453Z,6.57
2023-09-22T18:17:08.619Z,8.45
2023-09-22T18:19:40.841Z,7.90
2023-09-22T18:22:13.034Z,10.68
2023-09-22T18:24:45.581Z,7.63
2023-09-22T18:27:17.882Z,8.65
2023-09-22T18:29:50.813Z,8.65
2023-09-22T18:32:23.164Z,10.80
2023-09-22T18:34:55.994Z,8.07
2023-09-22T18:37:28.353Z,8.13
2023-09-22T18:40:00.839Z,10.45
2023-09-22T18:42:33.003Z,9.35
2023-09-22T18:45:07.251Z,13.45
2023-09-22T18:47:41.433Z,12.75
2023-09-22T18:50:13.631Z,11.57
2023-09-22T18:52:45.799Z,12.23
2023-09-22T18:55:18.135Z,12.52
2023-09-22T18:57:50.271Z,12.80
2023-09-22T19:00:24.097Z,24.45
2023-09-22T19:02:57.454Z,19.40
2023-09-22T19:05:29.648Z,19.83
2023-09-22T19:08:01.984Z,21.52
2023-09-22T19:10:41.067Z,18.30
2023-09-22T19:13:13.374Z,13.60
2023-09-22T19:15:45.633Z,15.60
2023-09-22T19:18:18.004Z,14.63
2023-09-22T19:20:50.145Z,10.77
2023-09-22T19:23:23.505Z,10.38
2023-09-22T19:25:55.650Z,9.60
2023-09-22T19:28:28.745Z,9.52
2023-09-22T19:31:01.049Z,7.95
2023-09-22T19:33:33.977Z,11.90
2023-09-22T19:36:06.464Z,11.43
2023-09-22T19:38:38.837Z,13.52
2023-09-22T19:41:14.035Z,13.23
2023-09-22T19:43:46.512Z,14.43
2023-09-22T19:46:19.860Z,17.92
2023-09-22T19:48:53.020Z,14.98
2023-09-22T19:51:25.254Z,12.25
2023-09-22T19:53:57.442Z,14.02
2023-09-22T19:56:29.782Z,18.30
2023-09-22T19:59:02.318Z,12.50
2023-09-22T20:01:34.765Z,15.90
2023-09-22T20:04:07.728Z,19.25
2023-09-22T20:06:40.004Z,11.70
2023-09-22T20:09:12.142Z,13.13
2023-09-22T20:11:44.252Z,10.40
2023-09-22T20:14:16.535Z,10.73
2023-09-22T20:16:48.712Z,13.25
2023-09-22T20:19:21.032Z,20.05
2023-09-22T20:21:53.139Z,14.75
2023-09-22T20:24:25.399Z,30.88
2023-09-22T20:26:59.243Z,32.05
2023-09-22T20:29:31.479Z,18.00
2023-09-22T20:32:03.838Z,14.85
2023-09-22T20:34:36.116Z,14.50
2023-09-22T20:37:08.349Z,12.70
2023-09-22T20:39:40.846Z,15.20
2023-09-22T20:42:13.002Z,15.30
2023-09-22T20:44:45.867Z,11.18
2023-09-22T20:47:18.138Z,10.43
2023-09-22T20:49:50.359Z,15.57
2023-09-22T20:52:22.613Z,16.13
2023-09-22T20:54:57.450Z,12.70
2023-09-22T20:57:29.684Z,12.02
2023-09-22T21:00:02.212Z,9.60
2023-09-22T21:02:34.538Z,11.82
2023-09-22T21:05:10.425Z,10.00
2023-09-22T21:07:43.410Z,10.02
2023-09-22T21:10:15.743Z,10.75
2023-09-22T21:12:48.002Z,11.52
2023-09-22T21:15:20.382Z,18.48
2023-09-22T21:17:55.038Z,12.52
2023-09-22T21:20:29.264Z,13.18
2023-09-22T21:23:01.622Z,14.48
2023-09-22T21:25:33.863Z,11.75
2023-09-22T21:28:06.765Z,8.80
2023-09-22T21:30:38.894Z,10.05
2023-09-22T21:33:11.760Z,9.43
2023-09-22T21:35:43.998Z,11.77
2023-09-22T21:38:16.231Z,7.75
2023-09-22T21:40:48.535Z,13.40
2023-09-22T21:43:22.550Z,13.68
2023-09-22T21:45:54.915Z,9.90
2023-09-22T21:48:27.216Z,8.02
2023-09-22T21:50:59.410Z,9.00
2023-09-22T21:53:31.505Z,7.43
2023-09-22T21:56:04.165Z,8.43
2023-09-22T21:58:36.345Z,16.02
2023-09-22T22:01:11.566Z,12.93
2023-09-22T22:03:45.739Z,11.32
2023-09-22T22:06:18.025Z,12.38
2023-09-22T22:08:50.168Z,11.77
2023-09-22T22:11:22.440Z,10.30
2023-09-22T22:13:55.720Z,10.57
2023-09-22T22:16:28.720Z,11.18
2023-09-22T22:19:02.244Z,11.90
2023-09-22T22:21:38.133Z,10.50
2023-09-22T22:24:11.622Z,7.88
2023-09-22T22:26:44.579Z,10.32
2023-09-22T22:29:17.656Z,7.13
2023-09-22T22:31:49.958Z,7.68
2023-09-22T22:34:22.490Z,6.75
2023-09-22T22:36:54.646Z,8.43
2023-09-22T22:39:26.946Z,6.95
2023-09-22T22:42:01.248Z,7.03
2023-09-22T22:44:33.682Z,6.15
2023-09-22T22:47:08.407Z,7.30
2023-09-22T22:49:41.086Z,9.27
2023-09-22T22:52:13.578Z,8.43
2023-09-22T22:54:48.092Z,11.18
2023-09-22T22:57:23.034Z,9.10
2023-09-22T22:59:55.753Z,13.43
2023-09-22T23:02:28.927Z,8.65
2023-09-22T23:05:01.240Z,5.80
2023-09-22T23:07:34.343Z,7.75
2023-09-22T23:10:08.454Z,5.78
2023-09-22T23:12:44.271Z,7.00
2023-09-22T23:15:17.709Z,7.85
2023-09-22T23:17:50.085Z,9.70
2023-09-22T23:20:35.213Z,7.63
2023-09-22T23:23:07.468Z,7.13
2023-09-22T23:25:40.502Z,5.68
2023-09-22T23:28:13.449Z,7.22
2023-09-22T23:30:45.612Z,8.23
2023-09-22T23:33:18.138Z,6.97
2023-09-22T23:35:51.102Z,8.35
2023-09-22T23:38:23.981Z,8.25
2023-09-22T23:40:56.702Z,8.25
2023-09-22T23:43:30.535Z,7.55
2023-09-22T23:46:02.878Z,9.02
2023-09-22T23:48:36.802Z,10.93
2023-09-22T23:51:09.548Z,12.50
2023-09-22T23:53:43.085Z,9.85
2023-09-22T23:56:16.539Z,7.72
2023-09-22T23:58:49.525Z,11.35
